Time;durP1;ratioP1;P1;durP2;ratioP2;P2;SDS_P1;SDS_P2;PMS_P1;PMS_P2;Temp;Humidity;BMP_temperature;BMP_pressure;BME280_temperature;BME280_humidity;BME280_pressure;Samples;Min_cycle;Max_cycle;Signal;HPM_P1;HPM_P2
2021/08/11 00:01:35;;;;;;;6.57;4.60;;;;;;;;;;5013129;28;20502;-60
2021/08/11 00:04:01;;;;;;;7.10;4.33;;;;;;;;;;5014072;28;20488;-58
2021/08/11 00:06:27;;;;;;;9.60;4.50;;;;;;;;;;5015410;28;20436;-61
2021/08/11 00:08:53;;;;;;;7.60;5.30;;;;;;;;;;5014387;28;20473;-59
2021/08/11 00:11:19;;;;;;;5.60;4.80;;;;;;;;;;5013874;28;20436;-61
2021/08/11 00:13:45;;;;;;;5.70;4.47;;;;;;;;;;5015086;28;20477;-63
2021/08/11 00:16:11;;;;;;;6.53;5.27;;;;;;;;;;5015815;28;20427;-61
2021/08/11 00:18:37;;;;;;;7.03;5.10;;;;;;;;;;5014250;28;20781;-61
2021/08/11 00:21:05;;;;;;;6.80;4.57;;;;;;;;;;5014954;28;20467;-65
2021/08/11 00:23:31;;;;;;;9.23;5.63;;;;;;;;;;5013340;28;20423;-61
2021/08/11 00:25:57;;;;;;;6.73;4.87;;;;;;;;;;5015484;28;20497;-61
2021/08/11 00:28:23;;;;;;;5.40;4.70;;;;;;;;;;5014492;28;20932;-62
2021/08/11 00:30:49;;;;;;;9.97;5.40;;;;;;;;;;5015302;28;20455;-61
2021/08/11 00:33:15;;;;;;;5.27;4.37;;;;;;;;;;5013826;28;20476;-61
2021/08/11 00:35:42;;;;;;;4.90;3.80;;;;;;;;;;5015558;28;20522;-61
2021/08/11 00:38:08;;;;;;;8.43;4.30;;;;;;;;;;5013596;28;20430;-61
2021/08/11 00:40:34;;;;;;;6.00;4.37;;;;;;;;;;5015366;28;20431;-60
2021/08/11 00:43:05;;;;;;;6.10;4.23;;;;;;;;;;5013450;28;20431;-61
2021/08/11 00:45:31;;;;;;;5.43;4.40;;;;;;;;;;5034222;28;20418;-61
2021/08/11 00:47:57;;;;;;;7.53;4.60;;;;;;;;;;5028772;28;20455;-60
2021/08/11 00:50:23;;;;;;;8.53;4.63;;;;;;;;;;5015996;28;20435;-61
2021/08/11 00:52:49;;;;;;;5.10;4.47;;;;;;;;;;5013613;28;20868;-62
2021/08/11 00:55:16;;;;;;;7.23;5.03;;;;;;;;;;5013884;28;20947;-60
2021/08/11 00:57:43;;;;;;;6.03;4.13;;;;;;;;;;5030748;28;20422;-63
2021/08/11 01:00:09;;;;;;;6.60;4.23;;;;;;;;;;5015352;28;20485;-60
2021/08/11 01:02:36;;;;;;;7.33;3.97;;;;;;;;;;5013205;28;20947;-63
2021/08/11 01:05:02;;;;;;;5.50;3.80;;;;;;;;;;5014570;28;20422;-60
2021/08/11 01:07:29;;;;;;;7.83;4.37;;;;;;;;;;5014109;28;20904;-60
2021/08/11 01:09:55;;;;;;;7.30;3.90;;;;;;;;;;5013871;28;20443;-60
2021/08/11 01:12:23;;;;;;;4.87;3.40;;;;;;;;;;5013752;28;20849;-60
2021/08/11 01:14:50;;;;;;;5.40;4.00;;;;;;;;;;5024835;28;20455;-60
2021/08/11 01:17:16;;;;;;;7.33;4.13;;;;;;;;;;5014490;28;20892;-60
2021/08/11 01:19:42;;;;;;;5.70;4.20;;;;;;;;;;5011198;28;20453;-60
2021/08/11 01:22:16;;;;;;;7.40;4.80;;;;;;;;;;5013957;28;20422;-60
2021/08/11 01:24:48;;;;;;;9.30;5.17;;;;;;;;;;5013575;28;20434;-59
2021/08/11 01:27:26;;;;;;;6.00;4.50;;;;;;;;;;5013601;28;20515;-60
2021/08/11 01:30:00;;;;;;;7.00;4.60;;;;;;;;;;5013010;28;20558;-59
2021/08/11 01:32:29;;;;;;;8.97;4.10;;;;;;;;;;5015039;28;20481;-62
2021/08/11 01:34:56;;;;;;;5.80;4.40;;;;;;;;;;5004757;28;20431;-61
2021/08/11 01:37:25;;;;;;;5.70;3.93;;;;;;;;;;4995766;28;20874;-61
2021/08/11 01:39:54;;;;;;;8.63;4.27;;;;;;;;;;5010724;28;20481;-61
2021/08/11 01:42:24;;;;;;;10.07;4.30;;;;;;;;;;5013359;28;20870;-59
2021/08/11 01:44:53;;;;;;;5.67;4.10;;;;;;;;;;5012235;28;20438;-60
2021/08/11 01:47:20;;;;;;;6.03;4.67;;;;;;;;;;5014038;28;20935;-60
2021/08/11 01:49:48;;;;;;;8.50;4.60;;;;;;;;;;5011956;28;20460;-62
2021/08/11 01:52:14;;;;;;;5.87;4.27;;;;;;;;;;5013998;28;20504;-59
2021/08/11 01:54:42;;;;;;;5.70;4.10;;;;;;;;;;5012577;28;20880;-59
2021/08/11 01:57:09;;;;;;;6.87;5.20;;;;;;;;;;5013943;28;20419;-59
2021/08/11 01:59:36;;;;;;;10.43;5.30;;;;;;;;;;5012429;28;20423;-60
2021/08/11 02:02:02;;;;;;;6.83;5.10;;;;;;;;;;5009493;28;20940;-61
2021/08/11 02:04:28;;;;;;;7.97;5.43;;;;;;;;;;5001772;28;20430;-61
2021/08/11 02:06:55;;;;;;;9.67;5.53;;;;;;;;;;5013991;28;20432;-61
2021/08/11 02:09:21;;;;;;;5.20;4.30;;;;;;;;;;5013185;28;21018;-61
2021/08/11 02:11:47;;;;;;;6.03;4.37;;;;;;;;;;5013707;28;20455;-60
2021/08/11 02:14:13;;;;;;;8.00;4.90;;;;;;;;;;5012594;28;20779;-60
2021/08/11 02:16:40;;;;;;;8.23;4.80;;;;;;;;;;5013160;28;20771;-60
2021/08/11 02:19:06;;;;;;;8.77;4.97;;;;;;;;;;5012725;28;20474;-60
2021/08/11 02:21:32;;;;;;;6.10;4.93;;;;;;;;;;5013752;28;21000;-60
2021/08/11 02:23:58;;;;;;;7.27;5.07;;;;;;;;;;5013132;28;20470;-61
2021/08/11 02:26:27;;;;;;;9.10;5.80;;;;;;;;;;5017426;28;20805;-61
2021/08/11 02:28:56;;;;;;;8.30;5.33;;;;;;;;;;5016580;28;20456;-62
2021/08/11 02:31:28;;;;;;;8.50;5.20;;;;;;;;;;5017626;28;20451;-61
2021/08/11 02:34:00;;;;;;;7.40;5.03;;;;;;;;;;5016210;28;21056;-61
2021/08/11 02:36:28;;;;;;;5.97;5.37;;;;;;;;;;5016856;28;20407;-61
2021/08/11 02:38:56;;;;;;;7.90;5.10;;;;;;;;;;5016824;28;21483;-60
2021/08/11 02:41:28;;;;;;;5.87;4.30;;;;;;;;;;5017682;28;20518;-60
2021/08/11 02:44:00;;;;;;;8.13;5.30;;;;;;;;;;5014569;28;20438;-62
2021/08/11 02:46:26;;;;;;;6.00;4.40;;;;;;;;;;5016922;28;20395;-62
2021/08/11 02:48:55;;;;;;;7.10;4.70;;;;;;;;;;5015571;28;20415;-60
2021/08/11 02:51:22;;;;;;;6.97;4.97;;;;;;;;;;5017837;28;20459;-60
2021/08/11 02:53:48;;;;;;;7.00;4.70;;;;;;;;;;5016655;28;20403;-62
2021/08/11 02:56:15;;;;;;;6.53;4.80;;;;;;;;;;5013817;28;20940;-63
2021/08/11 02:58:42;;;;;;;7.63;4.43;;;;;;;;;;5016841;28;20450;-61
2021/08/11 03:01:08;;;;;;;5.77;4.53;;;;;;;;;;5016018;28;20478;-61
2021/08/11 03:03:34;;;;;;;6.30;4.37;;;;;;;;;;5016477;28;20483;-60
2021/08/11 03:06:00;;;;;;;8.83;4.73;;;;;;;;;;5011398;28;20912;-63
2021/08/11 03:08:28;;;;;;;8.93;4.80;;;;;;;;;;5006288;28;20435;-61
2021/08/11 03:10:54;;;;;;;6.13;5.00;;;;;;;;;;5015884;28;20441;-61
2021/08/11 03:13:20;;;;;;;6.20;4.10;;;;;;;;;;5036044;28;20462;-61
2021/08/11 03:15:47;;;;;;;5.03;4.23;;;;;;;;;;5023441;28;20456;-61
2021/08/11 03:18:16;;;;;;;6.93;4.30;;;;;;;;;;5014519;28;20493;-61
2021/08/11 03:20:42;;;;;;;13.00;5.53;;;;;;;;;;5015739;28;20489;-61
2021/08/11 03:23:12;;;;;;;7.80;4.47;;;;;;;;;;5013687;28;20535;-61
2021/08/11 03:25:39;;;;;;;6.90;4.60;;;;;;;;;;5016611;28;20877;-63
2021/08/11 03:28:05;;;;;;;8.43;5.10;;;;;;;;;;5016168;28;20436;-60
2021/08/11 03:30:31;;;;;;;8.87;5.10;;;;;;;;;;5013808;28;20462;-61
2021/08/11 03:32:57;;;;;;;8.20;5.63;;;;;;;;;;5016168;28;20482;-60
2021/08/11 03:35:23;;;;;;;10.03;5.50;;;;;;;;;;5015836;28;20723;-61
2021/08/11 03:37:49;;;;;;;5.40;3.87;;;;;;;;;;5016183;28;20420;-61
2021/08/11 03:40:15;;;;;;;6.70;4.73;;;;;;;;;;5015021;28;20442;-61
2021/08/11 03:42:42;;;;;;;7.20;4.43;;;;;;;;;;5015888;28;20427;-61
2021/08/11 03:45:08;;;;;;;6.60;4.20;;;;;;;;;;5015953;28;20439;-61
2021/08/11 03:47:34;;;;;;;8.57;4.93;;;;;;;;;;5005944;28;20968;-60
2021/08/11 03:50:00;;;;;;;8.83;4.70;;;;;;;;;;4998565;28;20963;-60
2021/08/11 03:52:26;;;;;;;6.17;4.93;;;;;;;;;;5015599;28;20451;-60
2021/08/11 03:54:52;;;;;;;6.63;4.60;;;;;;;;;;5014419;28;20407;-60
2021/08/11 03:57:18;;;;;;;8.60;5.13;;;;;;;;;;5015151;28;20789;-60
2021/08/11 03:59:44;;;;;;;7.10;4.80;;;;;;;;;;5014494;28;20929;-61
2021/08/11 04:02:10;;;;;;;7.70;5.17;;;;;;;;;;5016142;28;20416;-59
2021/08/11 04:04:37;;;;;;;6.33;4.90;;;;;;;;;;5017008;28;20527;-60
2021/08/11 04:07:03;;;;;;;10.10;4.70;;;;;;;;;;5015455;28;20839;-59
2021/08/11 04:09:29;;;;;;;6.53;5.07;;;;;;;;;;5015094;28;20755;-60
2021/08/11 04:11:55;;;;;;;6.10;4.80;;;;;;;;;;5014050;28;20967;-58
2021/08/11 04:14:21;;;;;;;12.53;4.80;;;;;;;;;;5015778;28;20414;-60
2021/08/11 04:16:47;;;;;;;7.30;4.90;;;;;;;;;;5015071;28;20424;-58
2021/08/11 04:19:13;;;;;;;6.20;4.93;;;;;;;;;;5014869;28;20498;-58
2021/08/11 04:21:39;;;;;;;6.07;4.70;;;;;;;;;;5013831;28;20462;-59
2021/08/11 04:24:05;;;;;;;11.80;5.00;;;;;;;;;;5015602;28;20416;-60
2021/08/11 04:26:31;;;;;;;7.77;5.37;;;;;;;;;;5015209;28;20435;-63
2021/08/11 04:28:57;;;;;;;8.67;4.60;;;;;;;;;;5013756;28;20423;-60
2021/08/11 04:31:23;;;;;;;8.13;5.53;;;;;;;;;;5013848;28;20542;-59
2021/08/11 04:33:49;;;;;;;8.00;5.40;;;;;;;;;;5015686;28;20411;-60
2021/08/11 04:36:16;;;;;;;8.37;4.40;;;;;;;;;;5014409;28;20956;-60
2021/08/11 04:38:42;;;;;;;6.20;4.80;;;;;;;;;;5014895;28;20500;-60
2021/08/11 04:41:08;;;;;;;7.00;5.50;;;;;;;;;;5013843;28;20502;-60
2021/08/11 04:43:34;;;;;;;11.10;5.20;;;;;;;;;;5013941;28;20427;-60
2021/08/11 04:46:00;;;;;;;12.27;5.97;;;;;;;;;;5014699;28;20428;-59
2021/08/11 04:48:26;;;;;;;9.80;5.67;;;;;;;;;;5014229;28;20933;-57
2021/08/11 04:50:52;;;;;;;9.43;5.47;;;;;;;;;;5013165;28;20447;-59
2021/08/11 04:53:18;;;;;;;13.23;6.07;;;;;;;;;;5014961;28;20462;-62
2021/08/11 04:55:44;;;;;;;7.33;4.60;;;;;;;;;;5014262;28;20996;-58
2021/08/11 04:58:10;;;;;;;8.40;5.70;;;;;;;;;;5014693;28;20546;-61
2021/08/11 05:00:36;;;;;;;7.87;5.30;;;;;;;;;;5013439;28;20921;-61
2021/08/11 05:03:02;;;;;;;6.77;5.27;;;;;;;;;;5013200;28;20459;-61
2021/08/11 05:05:28;;;;;;;6.83;4.97;;;;;;;;;;5014551;28;20483;-60
2021/08/11 05:07:54;;;;;;;7.30;4.93;;;;;;;;;;5014948;28;20436;-60
2021/08/11 05:10:21;;;;;;;10.57;5.40;;;;;;;;;;5013600;28;20474;-60
2021/08/11 05:12:47;;;;;;;9.30;5.80;;;;;;;;;;5014912;28;20447;-60
2021/08/11 05:15:13;;;;;;;11.53;7.70;;;;;;;;;;5013498;28;20426;-63
2021/08/11 05:17:39;;;;;;;9.33;5.90;;;;;;;;;;4994803;28;20401;-61
2021/08/11 05:20:06;;;;;;;6.23;4.47;;;;;;;;;;5009521;28;20440;-61
2021/08/11 05:22:32;;;;;;;14.63;6.40;;;;;;;;;;5012251;28;20427;-60
2021/08/11 05:24:58;;;;;;;11.60;6.40;;;;;;;;;;5014561;28;20474;-61
2021/08/11 05:27:25;;;;;;;9.43;5.57;;;;;;;;;;5011029;28;20434;-61
2021/08/11 05:29:51;;;;;;;10.43;5.33;;;;;;;;;;5013469;28;21029;-61
2021/08/11 05:32:17;;;;;;;5.90;4.53;;;;;;;;;;5013190;28;20460;-60
2021/08/11 05:34:44;;;;;;;8.47;5.00;;;;;;;;;;5014489;28;20439;-61
2021/08/11 05:37:10;;;;;;;6.23;4.63;;;;;;;;;;5011118;28;20434;-58
2021/08/11 05:39:36;;;;;;;7.30;4.53;;;;;;;;;;5013939;28;20458;-56
2021/08/11 05:42:03;;;;;;;9.27;5.60;;;;;;;;;;5011429;28;20427;-61
2021/08/11 05:44:29;;;;;;;11.30;5.57;;;;;;;;;;5019338;28;20515;-59
2021/08/11 05:46:55;;;;;;;7.10;4.30;;;;;;;;;;5012409;28;20457;-59
2021/08/11 05:49:21;;;;;;;7.00;4.80;;;;;;;;;;5013439;28;20427;-60
2021/08/11 05:51:47;;;;;;;10.07;5.40;;;;;;;;;;5011003;28;20459;-58
2021/08/11 05:54:13;;;;;;;5.80;4.50;;;;;;;;;;5025822;28;20407;-55
2021/08/11 05:56:39;;;;;;;8.20;4.53;;;;;;;;;;5012368;28;20469;-55
2021/08/11 05:59:06;;;;;;;6.23;4.30;;;;;;;;;;5012502;28;20419;-59
2021/08/11 06:01:32;;;;;;;7.63;4.67;;;;;;;;;;5010330;28;20443;-55
2021/08/11 06:04:01;;;;;;;7.20;4.60;;;;;;;;;;5008949;28;21529;-55
2021/08/11 06:06:28;;;;;;;7.87;4.03;;;;;;;;;;5007016;28;20468;-56
2021/08/11 06:08:54;;;;;;;4.70;3.70;;;;;;;;;;5012291;28;20412;-62
2021/08/11 06:11:21;;;;;;;7.90;3.90;;;;;;;;;;5014693;28;20446;-58
2021/08/11 06:13:47;;;;;;;7.80;4.27;;;;;;;;;;5014255;28;20885;-61
2021/08/11 06:16:13;;;;;;;6.10;4.00;;;;;;;;;;5011657;28;20502;-63
2021/08/11 06:18:39;;;;;;;6.43;4.33;;;;;;;;;;5013860;28;20392;-62
2021/08/11 06:21:05;;;;;;;7.50;4.67;;;;;;;;;;5013571;28;20451;-63
2021/08/11 06:23:31;;;;;;;5.30;3.80;;;;;;;;;;5026301;28;20476;-61
2021/08/11 06:25:57;;;;;;;4.90;3.10;;;;;;;;;;5023756;28;20497;-61
2021/08/11 06:28:23;;;;;;;4.93;3.27;;;;;;;;;;5013177;28;20431;-64
2021/08/11 06:30:49;;;;;;;4.87;3.10;;;;;;;;;;5016197;28;20986;-62
2021/08/11 06:33:15;;;;;;;6.30;3.83;;;;;;;;;;5010253;28;20455;-59
2021/08/11 06:35:41;;;;;;;4.83;3.83;;;;;;;;;;5012879;28;20929;-60
2021/08/11 06:38:07;;;;;;;6.73;3.50;;;;;;;;;;5008362;28;20488;-61
2021/08/11 06:40:37;;;;;;;5.33;3.10;;;;;;;;;;5012215;28;20454;-58
2021/08/11 06:43:04;;;;;;;6.23;3.17;;;;;;;;;;5012056;28;20436;-59
2021/08/11 06:45:30;;;;;;;5.70;2.90;;;;;;;;;;5012341;28;20534;-61
2021/08/11 06:47:56;;;;;;;6.13;2.87;;;;;;;;;;5012240;28;20511;-60
2021/08/11 06:50:22;;;;;;;4.50;3.27;;;;;;;;;;5013553;28;20812;-61
2021/08/11 06:52:48;;;;;;;5.47;2.93;;;;;;;;;;5012887;28;20823;-59
2021/08/11 06:55:15;;;;;;;4.30;3.27;;;;;;;;;;5012496;28;20412;-62
2021/08/11 06:57:41;;;;;;;6.27;3.10;;;;;;;;;;5010804;28;20507;-60
2021/08/11 07:00:08;;;;;;;5.57;2.67;;;;;;;;;;5018982;28;20443;-64
2021/08/11 07:02:34;;;;;;;4.20;2.57;;;;;;;;;;5008653;28;20506;-60
2021/08/11 07:05:00;;;;;;;4.50;2.40;;;;;;;;;;5010157;28;20435;-60
2021/08/11 07:07:27;;;;;;;4.27;2.27;;;;;;;;;;5008840;28;20427;-60
2021/08/11 07:09:55;;;;;;;4.97;3.37;;;;;;;;;;5006545;28;20452;-60
2021/08/11 07:12:21;;;;;;;5.70;2.80;;;;;;;;;;5012029;28;20471;-60
2021/08/11 07:14:48;;;;;;;4.63;3.20;;;;;;;;;;5016188;28;20415;-60
2021/08/11 07:17:14;;;;;;;4.87;2.70;;;;;;;;;;5014518;28;20996;-59
2021/08/11 07:19:40;;;;;;;4.20;3.10;;;;;;;;;;5013122;28;20418;-59
2021/08/11 07:22:07;;;;;;;5.43;3.27;;;;;;;;;;5012349;28;20925;-60
2021/08/11 07:24:33;;;;;;;4.83;3.13;;;;;;;;;;5013150;28;20457;-62
2021/08/11 07:26:59;;;;;;;6.03;2.77;;;;;;;;;;5010771;28;20823;-62
2021/08/11 07:29:25;;;;;;;4.77;2.97;;;;;;;;;;5019903;28;20434;-61
2021/08/11 07:31:51;;;;;;;3.40;2.57;;;;;;;;;;5016409;28;20971;-61
2021/08/11 07:34:18;;;;;;;3.70;2.73;;;;;;;;;;5014170;28;20426;-60
2021/08/11 07:36:44;;;;;;;3.87;2.20;;;;;;;;;;5007284;28;20855;-58
2021/08/11 07:39:10;;;;;;;3.23;2.60;;;;;;;;;;5013389;28;20451;-61
2021/08/11 07:41:36;;;;;;;6.27;2.93;;;;;;;;;;5013655;28;20950;-61
2021/08/11 07:44:02;;;;;;;3.30;2.57;;;;;;;;;;5011589;28;20431;-61
2021/08/11 07:46:28;;;;;;;4.30;3.03;;;;;;;;;;5013018;28;20923;-63
2021/08/11 07:48:54;;;;;;;3.53;2.90;;;;;;;;;;5014964;28;20780;-63
2021/08/11 07:51:20;;;;;;;5.40;2.67;;;;;;;;;;5012689;28;20823;-60
2021/08/11 07:53:46;;;;;;;3.10;2.37;;;;;;;;;;5012243;28;20834;-60
2021/08/11 07:56:12;;;;;;;5.07;2.60;;;;;;;;;;5015721;28;20438;-61
2021/08/11 07:58:38;;;;;;;4.47;2.07;;;;;;;;;;5012468;28;20462;-63
2021/08/11 08:01:05;;;;;;;3.70;2.10;;;;;;;;;;5014045;28;20454;-63
2021/08/11 08:03:31;;;;;;;3.67;2.70;;;;;;;;;;5013471;28;20423;-60
2021/08/11 08:05:57;;;;;;;5.03;3.10;;;;;;;;;;5013173;28;20514;-60
2021/08/11 08:08:23;;;;;;;4.40;2.67;;;;;;;;;;5012550;28;20434;-64
2021/08/11 08:10:49;;;;;;;3.90;2.33;;;;;;;;;;5011481;28;20439;-59
2021/08/11 08:13:15;;;;;;;7.80;2.50;;;;;;;;;;5014401;28;20456;-58
2021/08/11 08:15:41;;;;;;;4.57;2.70;;;;;;;;;;5014183;28;20438;-58
2021/08/11 08:18:07;;;;;;;5.77;2.63;;;;;;;;;;5013906;28;20514;-60
2021/08/11 08:20:34;;;;;;;3.03;2.13;;;;;;;;;;5013001;28;20803;-62
2021/08/11 08:23:01;;;;;;;5.70;2.80;;;;;;;;;;5012588;28;20554;-60
2021/08/11 08:25:27;;;;;;;4.47;2.63;;;;;;;;;;5015242;28;20784;-59
2021/08/11 08:27:53;;;;;;;3.43;2.17;;;;;;;;;;5013134;28;20466;-61
2021/08/11 08:30:20;;;;;;;4.37;2.50;;;;;;;;;;5010056;28;20469;-60
2021/08/11 08:32:49;;;;;;;3.03;2.23;;;;;;;;;;5011838;28;20463;-61
2021/08/11 08:35:16;;;;;;;4.93;2.63;;;;;;;;;;5013698;28;20427;-59
2021/08/11 08:37:42;;;;;;;4.87;2.70;;;;;;;;;;5012401;28;20459;-59
2021/08/11 08:40:12;;;;;;;3.80;2.33;;;;;;;;;;5013603;28;20985;-57
2021/08/11 08:42:38;;;;;;;5.57;2.53;;;;;;;;;;5012490;28;20490;-62
2021/08/11 08:45:05;;;;;;;3.97;2.37;;;;;;;;;;5013036;28;20445;-58
2021/08/11 08:47:32;;;;;;;3.67;2.20;;;;;;;;;;5012370;28;20416;-60
2021/08/11 08:49:59;;;;;;;4.63;2.80;;;;;;;;;;5010773;28;20463;-59
2021/08/11 08:52:26;;;;;;;4.17;2.47;;;;;;;;;;5010280;28;20447;-58
2021/08/11 08:54:52;;;;;;;5.00;2.60;;;;;;;;;;5013195;28;20916;-60
2021/08/11 08:57:18;;;;;;;3.90;2.50;;;;;;;;;;5013551;28;20415;-59
2021/08/11 08:59:45;;;;;;;4.03;2.50;;;;;;;;;;5011854;28;20863;-62
2021/08/11 09:02:12;;;;;;;5.03;2.43;;;;;;;;;;5022383;28;20420;-58
2021/08/11 09:04:39;;;;;;;3.10;2.47;;;;;;;;;;5012735;28;20419;-59
2021/08/11 09:07:10;;;;;;;3.60;2.30;;;;;;;;;;5011901;28;20439;-60
2021/08/11 09:09:38;;;;;;;4.03;2.90;;;;;;;;;;5011987;28;20872;-60
2021/08/11 09:12:13;;;;;;;4.03;2.70;;;;;;;;;;5013259;28;20542;-57
2021/08/11 09:14:42;;;;;;;5.67;3.13;;;;;;;;;;5012161;28;20434;-62
2021/08/11 09:17:08;;;;;;;7.80;2.90;;;;;;;;;;5012466;28;20419;-59
2021/08/11 09:19:42;;;;;;;4.30;3.00;;;;;;;;;;5011896;28;20423;-60
2021/08/11 09:22:10;;;;;;;4.40;3.10;;;;;;;;;;5008918;28;20431;-62
2021/08/11 09:24:36;;;;;;;4.57;3.13;;;;;;;;;;5009752;28;20793;-59
2021/08/11 09:27:21;;;;;;;4.77;3.23;;;;;;;;;;5011067;28;20532;-59
2021/08/11 09:30:14;;;;;;;6.20;4.10;;;;;;;;;;5059851;23;20492;-81
2021/08/11 09:32:53;;;;;;;5.50;3.27;;;;;;;;;;5052455;28;20461;-83
2021/08/11 09:35:24;;;;;;;4.50;2.80;;;;;;;;;;5047837;28;20934;-82
2021/08/11 09:37:50;;;;;;;4.13;3.03;;;;;;;;;;5052834;28;20437;-85
2021/08/11 09:40:18;;;;;;;8.00;3.53;;;;;;;;;;5055561;28;20432;-84
2021/08/11 09:42:45;;;;;;;4.63;3.10;;;;;;;;;;5052700;28;20436;-81
2021/08/11 09:45:11;;;;;;;4.53;3.80;;;;;;;;;;5054411;28;20558;-84
2021/08/11 09:47:38;;;;;;;6.20;3.37;;;;;;;;;;5051229;28;20456;-84
2021/08/11 09:50:11;;;;;;;4.83;3.13;;;;;;;;;;5053635;28;20437;-84
2021/08/11 09:52:50;;;;;;;6.53;3.60;;;;;;;;;;5055379;28;20551;-84
2021/08/11 09:55:16;;;;;;;5.67;3.83;;;;;;;;;;5052539;28;20413;-83
2021/08/11 09:57:43;;;;;;;4.03;2.90;;;;;;;;;;5053822;28;20954;-81
2021/08/11 10:00:14;;;;;;;4.53;3.50;;;;;;;;;;5055912;28;20422;-84
2021/08/11 10:02:44;;;;;;;4.87;3.30;;;;;;;;;;5051792;28;20467;-80
2021/08/11 10:05:30;;;;;;;3.70;2.87;;;;;;;;;;5053672;28;20479;-81
2021/08/11 10:07:56;;;;;;;4.00;3.30;;;;;;;;;;5054212;28;20942;-80
2021/08/11 10:10:22;;;;;;;5.73;3.57;;;;;;;;;;5047804;28;20432;-79
2021/08/11 10:12:49;;;;;;;4.60;3.37;;;;;;;;;;5054542;28;20456;-81
2021/08/11 10:15:16;;;;;;;6.07;3.30;;;;;;;;;;5052960;28;20421;-80
2021/08/11 10:17:43;;;;;;;5.60;3.77;;;;;;;;;;5053179;28;20430;-81
2021/08/11 10:20:09;;;;;;;5.33;3.37;;;;;;;;;;5052295;28;20460;-79
2021/08/11 10:22:37;;;;;;;6.40;3.80;;;;;;;;;;5050276;28;20427;-79
2021/08/11 10:25:04;;;;;;;5.40;3.63;;;;;;;;;;5054978;28;20425;-79
2021/08/11 10:27:31;;;;;;;3.80;2.80;;;;;;;;;;5054252;28;20440;-78
2021/08/11 10:29:57;;;;;;;5.30;2.93;;;;;;;;;;5050893;28;20456;-82
2021/08/11 10:32:24;;;;;;;8.37;3.77;;;;;;;;;;5057953;28;20472;-82
2021/08/11 10:34:53;;;;;;;5.57;3.60;;;;;;;;;;5069679;28;20508;-82
2021/08/11 10:37:21;;;;;;;5.87;4.00;;;;;;;;;;5048276;28;20822;-83
2021/08/11 10:39:47;;;;;;;5.33;3.80;;;;;;;;;;5041465;28;20427;-78
2021/08/11 10:42:17;;;;;;;4.13;3.13;;;;;;;;;;5052400;28;20510;-80
2021/08/11 10:44:47;;;;;;;4.73;3.10;;;;;;;;;;5054835;28;20503;-81
2021/08/11 10:47:14;;;;;;;3.80;2.77;;;;;;;;;;5057619;28;20445;-78
2021/08/11 10:49:52;;;;;;;5.40;3.50;;;;;;;;;;5057710;28;20485;-84
2021/08/11 10:52:18;;;;;;;4.73;3.53;;;;;;;;;;5058018;28;20824;-86
2021/08/11 10:54:52;;;;;;;5.33;3.27;;;;;;;;;;5058111;28;20425;-84
2021/08/11 10:57:36;;;;;;;7.83;3.13;;;;;;;;;;5056765;28;20440;-84
2021/08/11 11:00:06;;;;;;;5.53;3.40;;;;;;;;;;5052792;28;20445;-84
2021/08/11 11:02:48;;;;;;;5.20;3.20;;;;;;;;;;5057007;28;20425;-87
2021/08/11 11:05:24;;;;;;;5.73;3.53;;;;;;;;;;5051298;28;20433;-81
2021/08/11 11:08:09;;;;;;;4.57;3.30;;;;;;;;;;5059186;28;20944;-84
2021/08/11 11:10:36;;;;;;;5.07;3.00;;;;;;;;;;5058009;28;20421;-82
2021/08/11 11:13:22;;;;;;;5.30;3.93;;;;;;;;;;5058302;28;20450;-85
2021/08/11 11:15:48;;;;;;;5.83;3.33;;;;;;;;;;5061600;28;20451;-82
2021/08/11 11:18:20;;;;;;;6.20;3.60;;;;;;;;;;5065671;28;20445;-85
2021/08/11 11:20:46;;;;;;;3.80;2.60;;;;;;;;;;5061258;28;20421;-85
2021/08/11 11:23:31;;;;;;;6.57;3.40;;;;;;;;;;5058436;28;20445;-85
2021/08/11 11:26:05;;;;;;;6.03;3.33;;;;;;;;;;5058950;28;20433;-85
2021/08/11 11:28:53;;;;;;;4.50;3.13;;;;;;;;;;5056269;28;20537;-84
2021/08/11 11:31:31;;;;;;;5.37;4.33;;;;;;;;;;5056660;28;20429;-85
2021/08/11 11:34:16;;;;;;;4.77;3.10;;;;;;;;;;5058846;28;20417;-85
2021/08/11 11:36:42;;;;;;;4.53;3.23;;;;;;;;;;5053975;28;20456;-84
2021/08/11 11:39:10;;;;;;;6.50;4.70;;;;;;;;;;5056789;28;20508;-85
2021/08/11 11:41:37;;;;;;;7.30;4.50;;;;;;;;;;5059324;28;20471;-85
2021/08/11 11:44:23;;;;;;;6.20;4.50;;;;;;;;;;5057801;28;20489;-85
2021/08/11 11:46:49;;;;;;;8.00;3.80;;;;;;;;;;5035721;28;20471;-86
2021/08/11 11:49:16;;;;;;;6.17;4.20;;;;;;;;;;5059866;28;20453;-86
2021/08/11 11:51:43;;;;;;;5.63;4.07;;;;;;;;;;5061108;28;20421;-85
2021/08/11 11:54:09;;;;;;;5.47;3.93;;;;;;;;;;5071300;28;20448;-80
2021/08/11 11:56:36;;;;;;;6.50;4.37;;;;;;;;;;5066418;28;20457;-84
2021/08/11 11:59:05;;;;;;;7.43;4.60;;;;;;;;;;5056693;28;20420;-80
2021/08/11 12:01:36;;;;;;;7.07;4.53;;;;;;;;;;5058317;28;20417;-83
2021/08/11 12:04:02;;;;;;;6.07;4.50;;;;;;;;;;5055008;28;20405;-81
2021/08/11 12:06:36;;;;;;;5.70;4.53;;;;;;;;;;5055639;28;20492;-79
2021/08/11 12:09:02;;;;;;;5.70;4.07;;;;;;;;;;5057118;28;20426;-80
2021/08/11 12:11:28;;;;;;;7.33;4.83;;;;;;;;;;5055964;28;20418;-80
2021/08/11 12:13:55;;;;;;;7.10;4.53;;;;;;;;;;5056197;28;20433;-80
2021/08/11 12:16:22;;;;;;;6.10;4.43;;;;;;;;;;5054912;28;20429;-79
2021/08/11 12:18:50;;;;;;;7.27;5.70;;;;;;;;;;5052429;28;20421;-80
2021/08/11 12:21:17;;;;;;;5.70;4.43;;;;;;;;;;5069625;28;20487;-80
2021/08/11 12:23:43;;;;;;;7.50;4.67;;;;;;;;;;5054051;28;20547;-79
2021/08/11 12:26:13;;;;;;;6.83;5.47;;;;;;;;;;5062370;28;20433;-80
2021/08/11 12:28:49;;;;;;;7.10;4.17;;;;;;;;;;5066688;28;20448;-78
2021/08/11 12:31:25;;;;;;;8.17;4.30;;;;;;;;;;5065915;28;20413;-79
2021/08/11 12:33:53;;;;;;;6.07;4.40;;;;;;;;;;5063433;28;20457;-84
2021/08/11 12:36:21;;;;;;;4.83;4.13;;;;;;;;;;5047258;28;20893;-82
2021/08/11 12:39:17;;;;;;;6.90;4.43;;;;;;;;;;5050734;28;20531;-84
2021/08/11 12:41:47;;;;;;;5.63;4.60;;;;;;;;;;5052037;28;20432;-81
2021/08/11 12:44:18;;;;;;;6.60;4.33;;;;;;;;;;5058581;28;20418;-84
2021/08/11 12:46:44;;;;;;;5.90;4.83;;;;;;;;;;5054057;28;20448;-82
2021/08/11 12:49:16;;;;;;;7.03;5.17;;;;;;;;;;5047819;28;20770;-84
2021/08/11 12:51:43;;;;;;;7.07;4.40;;;;;;;;;;5053889;28;20491;-83
2021/08/11 12:54:09;;;;;;;8.80;5.67;;;;;;;;;;5053708;28;20420;-84
2021/08/11 12:56:54;;;;;;;6.90;5.50;;;;;;;;;;5055502;28;20441;-85
2021/08/11 12:59:20;;;;;;;7.53;5.10;;;;;;;;;;5056590;28;20405;-83
2021/08/11 13:01:46;;;;;;;8.07;5.20;;;;;;;;;;5055435;28;20421;-84
2021/08/11 13:04:16;;;;;;;7.20;4.90;;;;;;;;;;5054939;28;20495;-84
2021/08/11 13:06:43;;;;;;;8.33;5.83;;;;;;;;;;5045337;28;20531;-84
2021/08/11 13:09:19;;;;;;;9.90;5.30;;;;;;;;;;5054554;28;20918;-84
2021/08/11 13:11:52;;;;;;;7.87;4.80;;;;;;;;;;5054336;28;20534;-85
2021/08/11 13:14:38;;;;;;;8.03;5.47;;;;;;;;;;5055496;28;20429;-83
2021/08/11 13:17:04;;;;;;;6.40;5.10;;;;;;;;;;5053020;28;20436;-84
2021/08/11 13:19:31;;;;;;;6.90;5.40;;;;;;;;;;5051261;28;20432;-84
2021/08/11 13:21:57;;;;;;;6.07;4.83;;;;;;;;;;5052467;28;20418;-83
2021/08/11 13:24:24;;;;;;;6.80;5.27;;;;;;;;;;5051720;28;20484;-83
2021/08/11 13:26:57;;;;;;;6.93;4.73;;;;;;;;;;5054335;28;20524;-84
2021/08/11 13:29:26;;;;;;;11.00;6.10;;;;;;;;;;5050130;28;20500;-84
2021/08/11 13:31:52;;;;;;;6.20;4.87;;;;;;;;;;5054718;28;20441;-85
2021/08/11 13:34:19;;;;;;;5.80;4.63;;;;;;;;;;5055078;28;20443;-81
2021/08/11 13:36:45;;;;;;;5.70;5.07;;;;;;;;;;5048978;28;20532;-84
2021/08/11 13:39:11;;;;;;;7.40;5.10;;;;;;;;;;5054023;28;20448;-84
2021/08/11 13:41:37;;;;;;;9.00;5.13;;;;;;;;;;5050650;28;20418;-82
2021/08/11 13:44:03;;;;;;;7.70;5.53;;;;;;;;;;5055634;28;20433;-85
2021/08/11 13:46:29;;;;;;;6.40;5.30;;;;;;;;;;5053607;28;20449;-85
2021/08/11 13:48:55;;;;;;;7.63;4.90;;;;;;;;;;5053967;28;20414;-81
2021/08/11 13:51:21;;;;;;;7.33;4.60;;;;;;;;;;5055118;28;20471;-85
2021/08/11 13:53:48;;;;;;;6.97;5.00;;;;;;;;;;5054771;28;20541;-85
2021/08/11 13:56:15;;;;;;;7.77;4.90;;;;;;;;;;5054106;28;20430;-82
2021/08/11 13:58:41;;;;;;;5.70;5.10;;;;;;;;;;5057798;28;20409;-84
2021/08/11 14:01:07;;;;;;;5.33;4.33;;;;;;;;;;5054891;28;20428;-82
2021/08/11 14:03:33;;;;;;;8.67;5.30;;;;;;;;;;5055641;28;20421;-85
2021/08/11 14:05:59;;;;;;;8.03;5.10;;;;;;;;;;5051157;28;20520;-85
2021/08/11 14:08:25;;;;;;;6.03;4.90;;;;;;;;;;5054401;28;20437;-82
2021/08/11 14:10:51;;;;;;;7.80;5.00;;;;;;;;;;5052657;28;20436;-82
2021/08/11 14:13:17;;;;;;;6.10;4.87;;;;;;;;;;5051755;28;20484;-82
2021/08/11 14:15:43;;;;;;;8.97;5.63;;;;;;;;;;5053331;28;20478;-82
2021/08/11 14:18:09;;;;;;;6.30;4.50;;;;;;;;;;5053930;28;20972;-81
2021/08/11 14:20:35;;;;;;;5.63;4.27;;;;;;;;;;5052796;28;20418;-82
2021/08/11 14:23:01;;;;;;;8.77;4.70;;;;;;;;;;5053533;28;21304;-84
2021/08/11 14:25:27;;;;;;;6.80;4.40;;;;;;;;;;5051548;28;20429;-82
2021/08/11 14:27:53;;;;;;;5.90;4.27;;;;;;;;;;5053416;28;20453;-82
2021/08/11 14:30:19;;;;;;;6.03;4.63;;;;;;;;;;5062993;28;20428;-79
2021/08/11 14:32:46;;;;;;;5.13;4.30;;;;;;;;;;5051379;22;20483;-70
2021/08/11 14:35:12;;;;;;;7.73;4.13;;;;;;;;;;5011914;28;20510;-70
2021/08/11 14:37:38;;;;;;;5.27;4.57;;;;;;;;;;4999632;28;20949;-70
2021/08/11 14:40:05;;;;;;;9.93;5.07;;;;;;;;;;5008198;28;20427;-70
2021/08/11 14:42:31;;;;;;;5.93;5.00;;;;;;;;;;5008576;28;20506;-70
2021/08/11 14:44:57;;;;;;;6.63;5.07;;;;;;;;;;5009985;28;20451;-70
2021/08/11 14:47:24;;;;;;;6.00;4.17;;;;;;;;;;5006601;28;20777;-70